Time;durP1;ratioP1;P1;durP2;ratioP2;P2;SDS_P1;SDS_P2;PMS_P1;PMS_P2;Temp;Humidity;BMP_temperature;BMP_pressure;BME280_temperature;BME280_humidity;BME280_pressure;Samples;Min_cycle;Max_cycle;Signal;HPM_P1;HPM_P2
2024/01/15 00:01:59;;;;;;;;;;;15.20;52.30;;;;;;7397349;19;1411;-73
2024/01/15 00:04:24;;;;;;;;;;;15.10;52.30;;;;;;7394644;19;1857;-72
2024/01/15 00:06:49;;;;;;;;;;;15.10;52.30;;;;;;7396588;19;2270;-72
2024/01/15 00:09:15;;;;;;;;;;;15.10;52.30;;;;;;7396089;19;1653;-73
2024/01/15 00:11:41;;;;;;;;;;;15.10;52.40;;;;;;7396396;19;2400;-72
2024/01/15 00:14:07;;;;;;;;;;;15.10;52.30;;;;;;7397241;19;1519;-72
2024/01/15 00:16:32;;;;;;;;;;;15.10;52.50;;;;;;7394419;19;871;-72
2024/01/15 00:18:58;;;;;;;;;;;15.00;52.40;;;;;;7395858;19;2208;-72
2024/01/15 00:21:23;;;;;;;;;;;15.00;52.40;;;;;;7395764;19;2800;-72
2024/01/15 00:23:49;;;;;;;;;;;15.00;52.50;;;;;;7396018;19;2036;-72
2024/01/15 00:26:15;;;;;;;;;;;14.90;52.40;;;;;;7395425;19;2131;-72
2024/01/15 00:28:40;;;;;;;;;;;15.00;52.50;;;;;;7392591;19;2291;-72
2024/01/15 00:31:06;;;;;;;;;;;15.00;52.50;;;;;;7394795;19;1066;-72
2024/01/15 00:33:31;;;;;;;;;;;15.00;52.50;;;;;;7398699;19;1389;-72
2024/01/15 00:35:56;;;;;;;;;;;14.90;52.40;;;;;;7395086;19;2456;-72
2024/01/15 00:38:22;;;;;;;;;;;14.90;52.50;;;;;;7394589;19;2176;-72
2024/01/15 00:40:47;;;;;;;;;;;14.90;52.50;;;;;;7395603;19;2309;-72
2024/01/15 00:43:13;;;;;;;;;;;14.90;52.50;;;;;;7396984;19;1687;-72
2024/01/15 00:45:39;;;;;;;;;;;14.90;52.50;;;;;;7393868;19;894;-72
2024/01/15 00:48:04;;;;;;;;;;;14.80;52.50;;;;;;7393150;19;831;-72
2024/01/15 00:50:30;;;;;;;;;;;14.80;52.50;;;;;;7394963;19;1786;-72
2024/01/15 00:52:55;;;;;;;;;;;14.80;52.50;;;;;;7396392;19;2537;-72
2024/01/15 00:55:20;;;;;;;;;;;14.80;52.40;;;;;;7396706;19;1888;-72
2024/01/15 00:57:46;;;;;;;;;;;14.80;52.50;;;;;;7392775;19;2182;-72
2024/01/15 01:00:12;;;;;;;;;;;14.80;52.50;;;;;;7393145;19;2494;-72
2024/01/15 01:02:37;;;;;;;;;;;14.70;52.40;;;;;;7396358;19;1397;-73
2024/01/15 01:05:03;;;;;;;;;;;14.70;52.50;;;;;;7396013;19;1516;-72
2024/01/15 01:07:28;;;;;;;;;;;14.70;52.50;;;;;;7392345;19;1288;-72
2024/01/15 01:09:54;;;;;;;;;;;14.70;52.60;;;;;;7395541;19;2033;-72
2024/01/15 01:12:20;;;;;;;;;;;14.70;52.50;;;;;;7392443;19;2137;-73
2024/01/15 01:14:45;;;;;;;;;;;14.70;52.50;;;;;;7392390;19;1083;-72
2024/01/15 01:17:11;;;;;;;;;;;14.70;52.50;;;;;;7392631;19;1841;-72
2024/01/15 01:19:36;;;;;;;;;;;14.60;52.60;;;;;;7398444;19;1912;-72
2024/01/15 01:22:02;;;;;;;;;;;14.60;52.50;;;;;;7402969;19;1601;-73
2024/01/15 01:24:28;;;;;;;;;;;14.60;52.50;;;;;;7402156;19;1649;-72
2024/01/15 01:26:53;;;;;;;;;;;14.60;52.50;;;;;;7400540;19;970;-72
2024/01/15 01:29:18;;;;;;;;;;;14.60;52.60;;;;;;7402526;19;2185;-72
2024/01/15 01:31:44;;;;;;;;;;;14.50;52.60;;;;;;7401703;19;1071;-72
2024/01/15 01:34:10;;;;;;;;;;;14.50;52.60;;;;;;7400353;19;2119;-72
2024/01/15 01:36:35;;;;;;;;;;;14.50;52.50;;;;;;7401897;19;1714;-72
2024/01/15 01:39:01;;;;;;;;;;;14.50;52.40;;;;;;7398216;19;1841;-72
2024/01/15 01:41:26;;;;;;;;;;;14.50;52.50;;;;;;7398530;19;970;-72
2024/01/15 01:43:52;;;;;;;;;;;14.50;52.50;;;;;;7400513;19;1726;-72
2024/01/15 01:46:17;;;;;;;;;;;14.50;52.50;;;;;;7401056;19;1544;-72
2024/01/15 01:48:42;;;;;;;;;;;14.50;52.40;;;;;;7398508;19;855;-72
2024/01/15 01:51:08;;;;;;;;;;;14.50;53.00;;;;;;7399089;19;2471;-73
2024/01/15 01:53:33;;;;;;;;;;;14.40;52.50;;;;;;7400201;19;1447;-72
2024/01/15 01:55:59;;;;;;;;;;;14.40;52.50;;;;;;7402389;19;1517;-72
2024/01/15 01:58:25;;;;;;;;;;;14.40;52.60;;;;;;7397522;19;2028;-73
2024/01/15 02:00:50;;;;;;;;;;;14.40;52.60;;;;;;7403234;19;1351;-73
2024/01/15 02:03:16;;;;;;;;;;;14.40;52.60;;;;;;7397597;19;974;-72
2024/01/15 02:05:42;;;;;;;;;;;14.40;52.60;;;;;;7401516;19;1739;-72
2024/01/15 02:08:07;;;;;;;;;;;14.40;52.50;;;;;;7397163;19;1385;-72
2024/01/15 02:10:33;;;;;;;;;;;14.40;52.50;;;;;;7402349;19;1574;-72
2024/01/15 02:12:58;;;;;;;;;;;14.40;52.50;;;;;;7401818;19;1512;-73
2024/01/15 02:15:24;;;;;;;;;;;14.40;52.20;;;;;;7399938;19;2191;-73
2024/01/15 02:17:59;;;;;;;;;;;14.50;52.30;;;;;;7396920;19;1833;-72
2024/01/15 02:20:25;;;;;;;;;;;14.50;52.00;;;;;;7400189;19;1766;-73
2024/01/15 02:22:51;;;;;;;;;;;14.60;51.90;;;;;;7397676;19;858;-72
2024/01/15 02:25:16;;;;;;;;;;;14.70;51.80;;;;;;7399493;19;1449;-72
2024/01/15 02:27:42;;;;;;;;;;;14.70;51.40;;;;;;7396065;19;2271;-72
2024/01/15 02:30:08;;;;;;;;;;;14.80;51.10;;;;;;7398066;19;1916;-72
2024/01/15 02:32:33;;;;;;;;;;;15.00;50.90;;;;;;7401303;19;1170;-72
2024/01/15 02:34:58;;;;;;;;;;;15.10;50.90;;;;;;7396808;19;2128;-72
2024/01/15 02:37:24;;;;;;;;;;;15.20;50.60;;;;;;7397175;19;1837;-72
2024/01/15 02:39:49;;;;;;;;;;;15.30;50.30;;;;;;7400037;19;1591;-72
2024/01/15 02:42:15;;;;;;;;;;;15.40;50.20;;;;;;7396396;19;946;-72
2024/01/15 02:44:40;;;;;;;;;;;15.40;50.10;;;;;;7397841;19;2332;-72
2024/01/15 02:47:06;;;;;;;;;;;15.50;50.20;;;;;;7401317;19;1195;-72
2024/01/15 02:49:32;;;;;;;;;;;15.60;50.00;;;;;;7397577;19;2213;-72
2024/01/15 02:51:57;;;;;;;;;;;15.70;49.60;;;;;;7399960;19;1982;-73
2024/01/15 02:54:23;;;;;;;;;;;15.80;49.40;;;;;;7396142;19;2020;-72
2024/01/15 02:56:48;;;;;;;;;;;15.90;49.30;;;;;;7399966;19;1839;-73
2024/01/15 02:59:14;;;;;;;;;;;15.90;49.10;;;;;;7394344;19;1841;-72
2024/01/15 03:01:39;;;;;;;;;;;15.90;49.00;;;;;;7396885;19;2463;-72
2024/01/15 03:04:04;;;;;;;;;;;16.00;48.90;;;;;;7400965;19;2306;-73
2024/01/15 03:06:30;;;;;;;;;;;16.00;48.80;;;;;;7396586;19;882;-72
2024/01/15 03:08:55;;;;;;;;;;;16.00;48.80;;;;;;7394784;19;1297;-73
2024/01/15 03:11:21;;;;;;;;;;;16.00;49.30;;;;;;7397590;19;1550;-72
2024/01/15 03:13:46;;;;;;;;;;;16.00;48.70;;;;;;7396175;19;850;-73
2024/01/15 03:16:12;;;;;;;;;;;16.10;48.70;;;;;;7397967;19;1851;-73
2024/01/15 03:18:37;;;;;;;;;;;16.10;48.70;;;;;;7393746;19;1841;-73
2024/01/15 03:21:03;;;;;;;;;;;16.10;48.40;;;;;;7400654;19;1458;-73
2024/01/15 03:23:28;;;;;;;;;;;16.10;48.30;;;;;;7395511;19;915;-73
2024/01/15 03:25:53;;;;;;;;;;;16.10;48.50;;;;;;7400519;19;1433;-73
2024/01/15 03:28:19;;;;;;;;;;;16.10;48.40;;;;;;7396623;19;2061;-73
2024/01/15 03:30:44;;;;;;;;;;;16.10;48.50;;;;;;7397965;19;2207;-72
2024/01/15 03:33:10;;;;;;;;;;;16.10;48.50;;;;;;7396381;19;1940;-72
2024/01/15 03:35:35;;;;;;;;;;;16.10;48.50;;;;;;7396257;19;1895;-73
2024/01/15 03:38:00;;;;;;;;;;;16.10;48.40;;;;;;7396867;19;1854;-72
2024/01/15 03:40:26;;;;;;;;;;;16.00;48.60;;;;;;7397076;19;1493;-73
2024/01/15 03:42:51;;;;;;;;;;;16.00;48.70;;;;;;7393240;19;2076;-73
2024/01/15 03:45:17;;;;;;;;;;;16.00;48.80;;;;;;7394971;19;939;-73
2024/01/15 03:47:42;;;;;;;;;;;16.00;48.70;;;;;;7396020;19;2184;-73
2024/01/15 03:50:08;;;;;;;;;;;15.90;48.60;;;;;;7398198;19;2108;-73
2024/01/15 03:52:33;;;;;;;;;;;16.00;48.70;;;;;;7395085;19;1521;-73
2024/01/15 03:54:59;;;;;;;;;;;15.90;48.70;;;;;;7394228;19;1945;-73
2024/01/15 03:57:24;;;;;;;;;;;15.90;48.70;;;;;;7398975;19;1850;-72
2024/01/15 03:59:49;;;;;;;;;;;15.90;48.70;;;;;;7394769;19;2004;-73
2024/01/15 04:02:15;;;;;;;;;;;16.00;48.70;;;;;;7397290;19;2004;-72
2024/01/15 04:04:41;;;;;;;;;;;15.90;48.60;;;;;;7397985;19;831;-73
2024/01/15 04:07:07;;;;;;;;;;;15.90;48.60;;;;;;7395301;19;1293;-72
2024/01/15 04:09:32;;;;;;;;;;;15.90;48.70;;;;;;7396238;19;2057;-73
2024/01/15 04:11:58;;;;;;;;;;;15.90;48.80;;;;;;7393746;19;1428;-72
2024/01/15 04:14:23;;;;;;;;;;;15.90;48.90;;;;;;7398066;19;1489;-73
2024/01/15 04:16:48;;;;;;;;;;;15.90;48.70;;;;;;7396042;19;2396;-72
2024/01/15 04:19:14;;;;;;;;;;;15.80;48.80;;;;;;7395089;19;2067;-72
2024/01/15 04:21:40;;;;;;;;;;;15.90;48.80;;;;;;7396223;19;1938;-72
2024/01/15 04:24:05;;;;;;;;;;;15.90;48.80;;;;;;7394682;19;2028;-72
2024/01/15 04:26:31;;;;;;;;;;;15.90;48.70;;;;;;7393482;19;1152;-72
2024/01/15 04:28:56;;;;;;;;;;;15.90;48.80;;;;;;7396363;19;2120;-73
2024/01/15 04:31:25;;;;;;;;;;;15.90;48.80;;;;;;7396495;19;2115;-72
2024/01/15 04:33:50;;;;;;;;;;;15.90;48.70;;;;;;7394554;19;2158;-72
2024/01/15 04:36:16;;;;;;;;;;;15.90;48.70;;;;;;7393996;19;1423;-72
2024/01/15 04:38:41;;;;;;;;;;;15.90;48.70;;;;;;7392106;19;1845;-72
2024/01/15 04:41:09;;;;;;;;;;;16.00;48.80;;;;;;7395670;19;1762;-72
2024/01/15 04:43:35;;;;;;;;;;;16.00;48.70;;;;;;7393733;19;2186;-72
2024/01/15 04:46:00;;;;;;;;;;;16.00;48.70;;;;;;7392998;19;1856;-72
2024/01/15 04:48:26;;;;;;;;;;;16.00;48.70;;;;;;7391251;19;1912;-73
2024/01/15 04:50:51;;;;;;;;;;;16.00;48.60;;;;;;7398644;19;1812;-73
2024/01/15 04:53:16;;;;;;;;;;;16.10;48.70;;;;;;7397472;19;1900;-72
2024/01/15 04:55:42;;;;;;;;;;;16.00;48.70;;;;;;7401473;19;1849;-72
2024/01/15 04:58:07;;;;;;;;;;;16.00;48.70;;;;;;7402074;19;2084;-72
2024/01/15 05:00:33;;;;;;;;;;;16.00;48.70;;;;;;7401269;19;1761;-72
2024/01/15 05:02:59;;;;;;;;;;;15.90;49.30;;;;;;7399778;19;2903;-72
2024/01/15 05:05:24;;;;;;;;;;;15.90;48.70;;;;;;7401462;19;2204;-72
2024/01/15 05:07:49;;;;;;;;;;;15.90;48.70;;;;;;7401902;19;2162;-72
2024/01/15 05:10:15;;;;;;;;;;;16.00;48.70;;;;;;7400369;19;2237;-72
2024/01/15 05:12:40;;;;;;;;;;;15.90;48.60;;;;;;7401990;19;2126;-72
2024/01/15 05:15:06;;;;;;;;;;;15.90;48.60;;;;;;7398690;19;2034;-72
2024/01/15 05:17:31;;;;;;;;;;;15.90;48.70;;;;;;7400138;19;1849;-73
2024/01/15 05:19:57;;;;;;;;;;;15.90;48.70;;;;;;7400537;19;1948;-72
2024/01/15 05:22:24;;;;;;;;;;;15.90;48.60;;;;;;7404843;19;1920;-72
2024/01/15 05:24:50;;;;;;;;;;;15.90;48.70;;;;;;7400411;19;2235;-72
2024/01/15 05:27:15;;;;;;;;;;;15.90;48.50;;;;;;7402211;19;2417;-72
2024/01/15 05:29:40;;;;;;;;;;;15.90;48.60;;;;;;7404268;19;938;-72
2024/01/15 05:32:06;;;;;;;;;;;15.90;48.50;;;;;;7403366;19;2217;-72
2024/01/15 05:34:31;;;;;;;;;;;15.90;48.60;;;;;;7402679;19;2066;-72
2024/01/15 05:36:57;;;;;;;;;;;15.90;48.70;;;;;;7401916;19;1682;-72
2024/01/15 05:39:22;;;;;;;;;;;15.80;48.70;;;;;;7399012;19;2270;-72
2024/01/15 05:41:47;;;;;;;;;;;15.80;48.60;;;;;;7401730;19;1837;-72
2024/01/15 05:44:13;;;;;;;;;;;15.90;48.60;;;;;;7400925;19;1845;-72
2024/01/15 05:46:38;;;;;;;;;;;15.90;48.50;;;;;;7398748;19;2166;-72
2024/01/15 05:49:04;;;;;;;;;;;15.90;48.60;;;;;;7398173;19;2046;-72
2024/01/15 05:51:29;;;;;;;;;;;15.90;48.70;;;;;;7400092;19;2163;-72
2024/01/15 05:53:54;;;;;;;;;;;15.90;48.70;;;;;;7399314;19;2239;-72
2024/01/15 05:56:20;;;;;;;;;;;15.90;48.60;;;;;;7401579;19;1677;-72
2024/01/15 05:58:45;;;;;;;;;;;15.80;48.60;;;;;;7400611;19;2248;-72
2024/01/15 06:01:11;;;;;;;;;;;15.90;48.60;;;;;;7400736;19;2014;-73
2024/01/15 06:03:36;;;;;;;;;;;15.80;48.70;;;;;;7400746;19;1740;-73
2024/01/15 06:06:02;;;;;;;;;;;15.80;48.70;;;;;;7398851;19;2190;-72
2024/01/15 06:08:28;;;;;;;;;;;15.90;48.50;;;;;;7399088;19;1962;-72
2024/01/15 06:10:53;;;;;;;;;;;15.90;48.60;;;;;;7397457;19;2064;-72
2024/01/15 06:13:19;;;;;;;;;;;15.90;48.40;;;;;;7400246;19;1655;-73
2024/01/15 06:15:44;;;;;;;;;;;15.90;48.40;;;;;;7399197;19;2055;-72
2024/01/15 06:18:09;;;;;;;;;;;15.90;48.40;;;;;;7396400;19;2113;-73
2024/01/15 06:20:35;;;;;;;;;;;16.00;48.40;;;;;;7401515;19;1903;-73
2024/01/15 06:23:00;;;;;;;;;;;15.90;48.40;;;;;;7399329;19;2010;-72
2024/01/15 06:25:26;;;;;;;;;;;15.90;48.40;;;;;;7398757;19;2187;-73
2024/01/15 06:27:51;;;;;;;;;;;15.90;48.40;;;;;;7397215;19;2076;-72
2024/01/15 06:30:17;;;;;;;;;;;16.00;48.30;;;;;;7400259;19;2040;-72
2024/01/15 06:32:42;;;;;;;;;;;16.00;48.20;;;;;;7398951;19;1905;-73
2024/01/15 06:35:10;;;;;;;;;;;16.00;48.20;;;;;;7397570;19;2246;-73
2024/01/15 06:37:35;;;;;;;;;;;16.00;48.20;;;;;;7399072;19;1952;-73
2024/01/15 06:40:01;;;;;;;;;;;16.00;48.20;;;;;;7397850;19;1537;-73
2024/01/15 06:42:26;;;;;;;;;;;16.00;48.10;;;;;;7397193;19;2113;-73
2024/01/15 06:44:52;;;;;;;;;;;16.00;48.10;;;;;;7396602;19;1934;-72
2024/01/15 06:47:17;;;;;;;;;;;16.10;48.00;;;;;;7396592;19;2120;-73
2024/01/15 06:49:43;;;;;;;;;;;16.10;48.00;;;;;;7395101;19;2206;-73
2024/01/15 06:52:08;;;;;;;;;;;16.10;48.70;;;;;;7397667;19;2072;-72
2024/01/15 06:54:33;;;;;;;;;;;16.10;47.90;;;;;;7400745;19;1793;-73
2024/01/15 06:56:59;;;;;;;;;;;16.10;48.10;;;;;;7396597;19;2232;-73
2024/01/15 06:59:24;;;;;;;;;;;16.10;48.10;;;;;;7397414;19;1857;-72
2024/01/15 07:01:50;;;;;;;;;;;16.10;48.00;;;;;;7400581;19;1364;-73
2024/01/15 07:04:15;;;;;;;;;;;16.10;48.00;;;;;;7396751;19;3604;-73
2024/01/15 07:06:41;;;;;;;;;;;16.20;47.80;;;;;;7401672;19;2049;-73
2024/01/15 07:09:07;;;;;;;;;;;16.10;47.80;;;;;;7396571;19;2061;-72
2024/01/15 07:11:33;;;;;;;;;;;16.20;47.90;;;;;;7396569;19;1565;-72
2024/01/15 07:13:58;;;;;;;;;;;16.20;47.80;;;;;;7396349;19;1046;-72
2024/01/15 07:16:23;;;;;;;;;;;16.20;47.80;;;;;;7393105;19;983;-72
2024/01/15 07:18:49;;;;;;;;;;;16.20;47.80;;;;;;7394834;19;2122;-73
2024/01/15 07:21:14;;;;;;;;;;;16.20;47.80;;;;;;7396184;19;2019;-73
2024/01/15 07:23:40;;;;;;;;;;;16.20;47.90;;;;;;7395971;19;2273;-73
2024/01/15 07:26:05;;;;;;;;;;;16.20;47.80;;;;;;7394776;19;2108;-73
2024/01/15 07:28:31;;;;;;;;;;;16.30;47.40;;;;;;7394954;19;1920;-72
2024/01/15 07:30:57;;;;;;;;;;;16.50;47.30;;;;;;7397913;19;1896;-72
2024/01/15 07:33:22;;;;;;;;;;;16.60;47.10;;;;;;7397789;19;1961;-72
2024/01/15 07:35:47;;;;;;;;;;;16.60;47.00;;;;;;7400000;19;2161;-72
2024/01/15 07:38:22;;;;;;;;;;;16.60;46.90;;;;;;7428956;19;2416;-59
2024/01/15 07:40:49;;;;;;;;;;;16.60;46.90;;;;;;7433405;19;1924;-60
2024/01/15 07:43:14;;;;;;;;;;;16.70;46.90;;;;;;7427589;19;1914;-59
2024/01/15 07:45:40;;;;;;;;;;;16.70;46.90;;;;;;7433322;19;1811;-59
2024/01/15 07:48:05;;;;;;;;;;;16.80;47.50;;;;;;7432318;19;2163;-60
2024/01/15 07:50:31;;;;;;;;;;;16.60;46.90;;;;;;7431090;19;2244;-59
2024/01/15 07:52:56;;;;;;;;;;;16.70;47.00;;;;;;7429586;19;2044;-60
2024/01/15 07:55:22;;;;;;;;;;;17.30;46.50;;;;;;7432775;19;1861;-62
2024/01/15 07:57:47;;;;;;;;;;;17.90;45.20;;;;;;7431027;19;2066;-62
2024/01/15 08:00:13;;;;;;;;;;;18.40;44.10;;;;;;7433329;19;2114;-62
2024/01/15 08:02:38;;;;;;;;;;;18.80;43.40;;;;;;7430703;19;1988;-62
2024/01/15 08:05:04;;;;;;;;;;;19.10;42.90;;;;;;7429973;19;2550;-62
2024/01/15 08:07:30;;;;;;;;;;;19.20;42.60;;;;;;7422712;19;3185;-60
2024/01/15 08:09:55;;;;;;;;;;;19.20;42.40;;;;;;7429744;19;2379;-60
2024/01/15 08:12:21;;;;;;;;;;;19.30;42.40;;;;;;7423021;19;2387;-62
2024/01/15 08:14:47;;;;;;;;;;;19.40;42.40;;;;;;7428584;19;2066;-62
2024/01/15 08:17:12;;;;;;;;;;;19.40;42.20;;;;;;7427394;19;2049;-62
2024/01/15 08:19:40;;;;;;;;;;;19.40;42.30;;;;;;7429965;19;2505;-63
2024/01/15 08:22:06;;;;;;;;;;;19.40;42.50;;;;;;7428734;19;2044;-60
2024/01/15 08:24:31;;;;;;;;;;;19.30;42.40;;;;;;7425813;19;2666;-62
2024/01/15 08:26:57;;;;;;;;;;;19.20;42.50;;;;;;7429335;19;1799;-62
2024/01/15 08:29:24;;;;;;;;;;;19.10;42.70;;;;;;7430353;19;1367;-62
2024/01/15 08:31:50;;;;;;;;;;;19.00;42.90;;;;;;7429654;19;1229;-62
2024/01/15 08:34:15;;;;;;;;;;;19.00;43.10;;;;;;7429001;19;1560;-62
2024/01/15 08:36:40;;;;;;;;;;;18.80;43.50;;;;;;7427008;19;1846;-62
2024/01/15 08:39:06;;;;;;;;;;;18.60;43.30;;;;;;7435893;19;1549;-62
2024/01/15 08:41:32;;;;;;;;;;;18.40;43.70;;;;;;7430697;19;1315;-62
2024/01/15 08:43:58;;;;;;;;;;;18.20;44.10;;;;;;7430564;19;1473;-62
2024/01/15 08:46:24;;;;;;;;;;;18.00;44.40;;;;;;7428447;19;1399;-62
2024/01/15 08:48:49;;;;;;;;;;;17.90;44.80;;;;;;7412714;19;1436;-62
2024/01/15 08:51:15;;;;;;;;;;;17.80;45.00;;;;;;7402778;19;1339;-62
2024/01/15 08:53:40;;;;;;;;;;;17.70;45.10;;;;;;7402274;19;1425;-62
2024/01/15 08:56:06;;;;;;;;;;;17.70;45.00;;;;;;7402130;19;1845;-63
2024/01/15 08:58:31;;;;;;;;;;;17.70;45.10;;;;;;7397593;19;1834;-62
2024/01/15 09:00:56;;;;;;;;;;;17.60;45.20;;;;;;7399829;19;1992;-63
2024/01/15 09:03:22;;;;;;;;;;;17.60;45.50;;;;;;7397956;19;1955;-63
2024/01/15 09:05:49;;;;;;;;;;;17.50;45.60;;;;;;7393784;19;2776;-62
2024/01/15 09:08:15;;;;;;;;;;;17.50;45.60;;;;;;7398862;19;1695;-62
2024/01/15 09:10:40;;;;;;;;;;;17.50;45.60;;;;;;7399225;19;1775;-62
2024/01/15 09:13:06;;;;;;;;;;;17.60;45.60;;;;;;7396382;19;1886;-62
2024/01/15 09:15:32;;;;;;;;;;;17.70;45.20;;;;;;7399340;19;1887;-62
2024/01/15 09:17:58;;;;;;;;;;;18.00;45.00;;;;;;7396402;19;1841;-62
2024/01/15 09:20:25;;;;;;;;;;;18.10;44.60;;;;;;7398126;19;1860;-62
2024/01/15 09:22:51;;;;;;;;;;;18.20;44.40;;;;;;7400854;19;1523;-63
2024/01/15 09:25:16;;;;;;;;;;;18.20;44.20;;;;;;7400488;19;1647;-63
2024/01/15 09:27:42;;;;;;;;;;;18.20;44.20;;;;;;7397445;19;1714;-62
2024/01/15 09:30:08;;;;;;;;;;;18.20;44.20;;;;;;7397724;19;2126;-63
2024/01/15 09:32:33;;;;;;;;;;;18.10;44.50;;;;;;7399951;19;1686;-64
2024/01/15 09:34:59;;;;;;;;;;;17.90;44.60;;;;;;7401697;19;1669;-63
2024/01/15 09:37:24;;;;;;;;;;;17.80;44.80;;;;;;7400320;19;1837;-63
2024/01/15 09:39:50;;;;;;;;;;;17.80;45.10;;;;;;7399145;19;1549;-63
2024/01/15 09:42:15;;;;;;;;;;;17.80;45.10;;;;;;7401159;19;1664;-63
2024/01/15 09:44:50;;;;;;;;;;;17.70;45.00;;;;;;7397894;19;1484;-62
2024/01/15 09:47:16;;;;;;;;;;;17.80;45.10;;;;;;7400707;19;1565;-63
2024/01/15 09:49:42;;;;;;;;;;;17.70;45.00;;;;;;7400001;19;1598;-62
2024/01/15 09:52:07;;;;;;;;;;;17.70;45.10;;;;;;7401853;19;1680;-64
2024/01/15 09:54:33;;;;;;;;;;;17.70;45.20;;;;;;7397649;19;1622;-63
2024/01/15 09:56:59;;;;;;;;;;;17.70;45.40;;;;;;7396929;19;1857;-62
2024/01/15 09:59:24;;;;;;;;;;;17.70;45.40;;;;;;7397280;19;1992;-62
2024/01/15 10:01:50;;;;;;;;;;;17.70;45.40;;;;;;7397815;19;2047;-62
2024/01/15 10:04:15;;;;;;;;;;;17.70;45.30;;;;;;7397885;19;1879;-62
2024/01/15 10:06:47;;;;;;;;;;;17.90;45.10;;;;;;7396189;19;2557;-62
2024/01/15 10:09:16;;;;;;;;;;;18.00;44.90;;;;;;7397757;19;1789;-63
2024/01/15 10:11:42;;;;;;;;;;;18.10;44.60;;;;;;7395365;19;2335;-62
2024/01/15 10:14:07;;;;;;;;;;;18.20;44.60;;;;;;7400062;19;1502;-62
2024/01/15 10:16:33;;;;;;;;;;;18.20;44.60;;;;;;7397125;19;1846;-62
2024/01/15 10:18:58;;;;;;;;;;;18.20;44.60;;;;;;7400334;19;2037;-62
2024/01/15 10:21:26;;;;;;;;;;;18.00;44.70;;;;;;7399127;19;1589;-62
2024/01/15 10:23:51;;;;;;;;;;;17.90;44.90;;;;;;7399053;19;1399;-62
2024/01/15 10:26:17;;;;;;;;;;;17.80;45.10;;;;;;7398012;19;1472;-62
2024/01/15 10:28:42;;;;;;;;;;;17.80;45.20;;;;;;7397051;19;1517;-62
2024/01/15 10:31:08;;;;;;;;;;;17.80;45.30;;;;;;7398301;19;2479;-62
2024/01/15 10:33:33;;;;;;;;;;;17.80;45.20;;;;;;7397504;19;1500;-62
2024/01/15 10:35:59;;;;;;;;;;;17.70;45.20;;;;;;7398123;19;1852;-62
2024/01/15 10:38:25;;;;;;;;;;;17.70;45.20;;;;;;7398519;19;1609;-62
2024/01/15 10:40:50;;;;;;;;;;;17.80;45.30;;;;;;7397132;19;1752;-62
2024/01/15 10:43:17;;;;;;;;;;;17.70;45.30;;;;;;7395824;19;1657;-63
2024/01/15 10:45:46;;;;;;;;;;;17.70;45.40;;;;;;7399635;19;1688;-63
2024/01/15 10:48:12;;;;;;;;;;;17.70;45.50;;;;;;7397071;19;1858;-63
2024/01/15 10:50:37;;;;;;;;;;;17.70;45.50;;;;;;7398625;19;1694;-63
2024/01/15 10:53:03;;;;;;;;;;;17.70;45.50;;;;;;7396588;19;1842;-63
2024/01/15 10:55:28;;;;;;;;;;;17.80;45.40;;;;;;7395541;19;1686;-63
2024/01/15 10:57:56;;;;;;;;;;;17.90;45.90;;;;;;7394108;19;1846;-63
2024/01/15 11:00:21;;;;;;;;;;;18.00;45.00;;;;;;7392877;19;2296;-63
2024/01/15 11:02:47;;;;;;;;;;;18.10;44.90;;;;;;7396234;19;2216;-63
2024/01/15 11:05:12;;;;;;;;;;;18.00;44.80;;;;;;7393465;19;1920;-63
2024/01/15 11:07:39;;;;;;;;;;;18.00;44.90;;;;;;7396650;19;2670;-61
2024/01/15 11:10:04;;;;;;;;;;;17.90;45.00;;;;;;7395659;19;1711;-63
2024/01/15 11:12:30;;;;;;;;;;;17.80;45.10;;;;;;7392426;19;1819;-63
2024/01/15 11:15:01;;;;;;;;;;;17.80;45.20;;;;;;7394455;19;1643;-62
2024/01/15 11:17:27;;;;;;;;;;;17.90;45.10;;;;;;7394955;19;1852;-64
2024/01/15 11:19:52;;;;;;;;;;;17.80;45.10;;;;;;7396213;19;1676;-64
2024/01/15 11:22:30;;;;;;;;;;;17.90;45.00;;;;;;7396776;19;1697;-64
2024/01/15 11:24:55;;;;;;;;;;;17.80;45.10;;;;;;7395815;19;1841;-62
2024/01/15 11:27:40;;;;;;;;;;;17.90;45.80;;;;;;7395781;19;2259;-61
2024/01/15 11:30:08;;;;;;;;;;;17.90;45.10;;;;;;7398259;19;2093;-63
2024/01/15 11:32:35;;;;;;;;;;;17.80;45.10;;;;;;7396628;19;1169;-64
2024/01/15 11:35:01;;;;;;;;;;;17.80;45.20;;;;;;7395984;19;2050;-63
2024/01/15 11:37:50;;;;;;;;;;;17.90;45.20;;;;;;7391640;19;2055;-63
2024/01/15 11:40:19;;;;;;;;;;;17.90;45.00;;;;;;7394543;19;1499;-63
2024/01/15 11:42:45;;;;;;;;;;;18.10;44.80;;;;;;7394547;19;2168;-63
2024/01/15 11:45:10;;;;;;;;;;;18.20;44.60;;;;;;7394978;19;1694;-63
2024/01/15 11:47:50;;;;;;;;;;;18.20;44.50;;;;;;7395444;19;1954;-63
2024/01/15 11:50:15;;;;;;;;;;;18.20;44.50;;;;;;7392630;19;2188;-63
2024/01/15 11:52:41;;;;;;;;;;;18.10;44.60;;;;;;7389843;19;2061;-64
2024/01/15 11:55:19;;;;;;;;;;;18.00;44.70;;;;;;7389698;19;1985;-63
2024/01/15 11:57:44;;;;;;;;;;;18.00;44.80;;;;;;7392934;19;1840;-63
2024/01/15 12:00:11;;;;;;;;;;;17.90;45.10;;;;;;7393311;19;2572;-63
2024/01/15 12:02:36;;;;;;;;;;;17.90;45.10;;;;;;7393397;19;1921;-63
2024/01/15 12:05:02;;;;;;;;;;;17.80;45.10;;;;;;7390830;19;2227;-63
2024/01/15 12:07:28;;;;;;;;;;;17.90;45.00;;;;;;7393433;19;2595;-63
2024/01/15 12:09:54;;;;;;;;;;;17.90;45.10;;;;;;7389802;19;2123;-62
2024/01/15 12:12:21;;;;;;;;;;;17.90;45.20;;;;;;7383508;19;3010;-64
2024/01/15 12:14:47;;;;;;;;;;;17.80;45.10;;;;;;7391373;19;2731;-62
2024/01/15 12:17:12;;;;;;;;;;;17.80;45.20;;;;;;7387039;19;2210;-64
2024/01/15 12:19:38;;;;;;;;;;;17.80;45.30;;;;;;7391158;19;1705;-62
2024/01/15 12:22:03;;;;;;;;;;;17.90;45.20;;;;;;7392332;19;2466;-64
2024/01/15 12:24:29;;;;;;;;;;;18.00;45.10;;;;;;7397958;19;1939;-64
2024/01/15 12:26:54;;;;;;;;;;;18.10;44.90;;;;;;7400689;19;2444;-62
2024/01/15 12:29:20;;;;;;;;;;;18.20;45.40;;;;;;7400273;19;2146;-64
2024/01/15 12:31:49;;;;;;;;;;;18.20;44.60;;;;;;7402295;19;1713;-63
2024/01/15 12:34:14;;;;;;;;;;;18.20;44.60;;;;;;7398461;19;1957;-64
2024/01/15 12:36:40;;;;;;;;;;;18.20;44.70;;;;;;7397648;19;1843;-64
2024/01/15 12:39:08;;;;;;;;;;;18.10;44.80;;;;;;7400608;19;2171;-63
2024/01/15 12:41:34;;;;;;;;;;;18.10;44.90;;;;;;7399924;19;1900;-63
2024/01/15 12:44:00;;;;;;;;;;;18.00;45.10;;;;;;7398991;19;1923;-63
2024/01/15 12:46:25;;;;;;;;;;;18.00;45.20;;;;;;7398437;19;1829;-61
2024/01/15 12:48:50;;;;;;;;;;;18.00;45.10;;;;;;7399820;19;2053;-62
2024/01/15 12:51:16;;;;;;;;;;;18.00;45.00;;;;;;7400170;19;1780;-63
2024/01/15 12:53:42;;;;;;;;;;;18.00;45.10;;;;;;7400306;19;1785;-63
2024/01/15 12:56:07;;;;;;;;;;;18.00;45.00;;;;;;7396510;19;1988;-63
2024/01/15 12:58:33;;;;;;;;;;;17.90;45.20;;;;;;7396895;19;1711;-63
2024/01/15 13:00:58;;;;;;;;;;;17.90;45.10;;;;;;7395189;19;2551;-63
2024/01/15 13:03:23;;;;;;;;;;;17.90;45.20;;;;;;7400493;19;1769;-63
2024/01/15 13:05:49;;;;;;;;;;;17.90;45.40;;;;;;7397863;19;2271;-63
2024/01/15 13:08:15;;;;;;;;;;;17.90;45.40;;;;;;7400269;19;2697;-63
2024/01/15 13:10:42;;;;;;;;;;;18.00;45.20;;;;;;7398465;19;2074;-63
2024/01/15 13:13:07;;;;;;;;;;;18.10;45.10;;;;;;7395438;19;3250;-64
2024/01/15 13:15:33;;;;;;;;;;;18.20;44.80;;;;;;7401199;19;1824;-63
2024/01/15 13:17:58;;;;;;;;;;;18.30;44.80;;;;;;7397812;19;1837;-61
2024/01/15 13:20:23;;;;;;;;;;;18.30;44.70;;;;;;7399045;19;2362;-63
2024/01/15 13:22:49;;;;;;;;;;;18.30;44.70;;;;;;7399173;19;1548;-63
2024/01/15 13:25:16;;;;;;;;;;;18.20;44.80;;;;;;7398962;19;2023;-63
2024/01/15 13:27:41;;;;;;;;;;;18.00;45.00;;;;;;7399474;19;1974;-63
2024/01/15 13:30:07;;;;;;;;;;;17.90;45.20;;;;;;7397569;19;1906;-63
2024/01/15 13:32:33;;;;;;;;;;;17.90;45.30;;;;;;7400835;19;1995;-63
2024/01/15 13:34:59;;;;;;;;;;;17.90;45.40;;;;;;7400423;19;1353;-63
2024/01/15 13:37:24;;;;;;;;;;;17.90;45.40;;;;;;7399170;19;1829;-64
2024/01/15 13:39:51;;;;;;;;;;;17.80;45.40;;;;;;7393445;19;3209;-63
2024/01/15 13:42:17;;;;;;;;;;;17.60;45.70;;;;;;7399750;19;1584;-63
2024/01/15 13:44:42;;;;;;;;;;;17.40;46.20;;;;;;7399819;19;2699;-62
2024/01/15 13:47:08;;;;;;;;;;;17.40;46.40;;;;;;7395919;19;2159;-64
2024/01/15 13:49:35;;;;;;;;;;;17.50;46.40;;;;;;7395955;19;2065;-63
2024/01/15 13:52:03;;;;;;;;;;;17.50;46.30;;;;;;7397279;19;1928;-63
2024/01/15 13:54:29;;;;;;;;;;;17.60;46.20;;;;;;7397074;19;1862;-64
2024/01/15 13:56:55;;;;;;;;;;;17.80;46.00;;;;;;7388943;19;3211;-63
2024/01/15 13:59:20;;;;;;;;;;;18.00;45.80;;;;;;7400889;19;2382;-61
2024/01/15 14:01:47;;;;;;;;;;;18.20;45.50;;;;;;7400990;19;2227;-63
2024/01/15 14:04:12;;;;;;;;;;;18.40;45.30;;;;;;7397372;19;2028;-63
2024/01/15 14:06:39;;;;;;;;;;;18.60;45.10;;;;;;7396304;19;2361;-61
2024/01/15 14:09:04;;;;;;;;;;;18.60;45.00;;;;;;7396848;19;3359;-63
2024/01/15 14:11:30;;;;;;;;;;;18.60;44.90;;;;;;7392725;19;3428;-63
2024/01/15 14:13:55;;;;;;;;;;;18.50;45.00;;;;;;7396362;19;2084;-61
2024/01/15 14:16:20;;;;;;;;;;;18.50;45.20;;;;;;7397721;19;2555;-61
2024/01/15 14:18:46;;;;;;;;;;;18.40;45.40;;;;;;7395406;19;2368;-64
2024/01/15 14:21:11;;;;;;;;;;;18.30;45.60;;;;;;7396509;19;1828;-64
2024/01/15 14:23:37;;;;;;;;;;;18.30;45.80;;;;;;7387961;19;2315;-63